createdAt,value
2023-03-31T00:02:13.902Z,98658.69
2023-03-31T00:04:55.283Z,98659.88
2023-03-31T00:07:27.254Z,98657.59
2023-03-31T00:10:16.765Z,98654.97
2023-03-31T00:12:49.817Z,98659.59
2023-03-31T00:15:21.599Z,98649.22
2023-03-31T00:17:53.671Z,98644.97
2023-03-31T00:20:25.402Z,98637.06
2023-03-31T00:22:59.003Z,98643.31
2023-03-31T00:25:30.889Z,98643.31
2023-03-31T00:28:02.592Z,98644.50
2023-03-31T00:30:34.699Z,98642.84
2023-03-31T00:33:07.082Z,98640.41
2023-03-31T00:35:39.255Z,98637.94
2023-03-31T00:38:14.021Z,98629.03
2023-03-31T00:40:48.640Z,98635.47
2023-03-31T00:43:36.935Z,98628.56
2023-03-31T00:46:15.714Z,98617.84
2023-03-31T00:48:52.132Z,98615.94
2023-03-31T00:51:28.287Z,98619.38
2023-03-31T00:54:06.446Z,98619.56
2023-03-31T00:56:41.811Z,98606.56
2023-03-31T00:59:15.616Z,98601.47
2023-03-31T01:01:50.648Z,98601.81
2023-03-31T01:04:22.890Z,98594.91
2023-03-31T01:07:03.394Z,98599.38
2023-03-31T01:09:35.744Z,98588.09
2023-03-31T01:12:09.662Z,98583.38
2023-03-31T01:14:48.863Z,98577.19
2023-03-31T01:17:28.823Z,98572.91
2023-03-31T01:20:12.630Z,98565.00
2023-03-31T01:22:50.017Z,98562.81
2023-03-31T01:26:09.386Z,98556.53
2023-03-31T01:29:08.876Z,98550.28
2023-03-31T01:32:13.925Z,98552.09
2023-03-31T01:34:51.904Z,98543.75
2023-03-31T01:38:00.939Z,98532.81
2023-03-31T01:40:46.597Z,98516.50
2023-03-31T01:43:33.627Z,98519.41
2023-03-31T01:46:21.205Z,98521.66
2023-03-31T01:49:22.975Z,98522.47
2023-03-31T01:52:11.593Z,98513.84
2023-03-31T01:55:10.423Z,98507.75
2023-03-31T01:58:07.883Z,98508.75
2023-03-31T02:00:45.292Z,98500.50
2023-03-31T02:03:29.456Z,98497.03
2023-03-31T02:06:10.590Z,98496.22
2023-03-31T02:08:52.556Z,98490.94
2023-03-31T02:11:25.711Z,98477.94
2023-03-31T02:14:01.999Z,98480.75
2023-03-31T02:16:41.792Z,98483.94
2023-03-31T02:19:19.709Z,98471.59
2023-03-31T02:21:51.947Z,98464.31
2023-03-31T02:24:26.560Z,98466.13
2023-03-31T02:27:08.608Z,98465.06
2023-03-31T02:29:42.357Z,98465.22
2023-03-31T02:32:32.456Z,98470.50
2023-03-31T02:35:07.049Z,98469.41
2023-03-31T02:37:40.533Z,98471.59
2023-03-31T02:40:22.630Z,98470.13
2023-03-31T02:42:54.549Z,98467.94
2023-03-31T02:45:41.361Z,98461.06
2023-03-31T02:48:19.418Z,98455.31
2023-03-31T02:51:03.583Z,98454.75
2023-03-31T02:53:48.752Z,98457.34
2023-03-31T02:56:39.799Z,98459.88
2023-03-31T02:59:11.499Z,98448.03
2023-03-31T03:01:46.540Z,98449.50
2023-03-31T03:04:53.887Z,98441.06
2023-03-31T03:08:19.599Z,98446.59
2023-03-31T03:10:57.344Z,98440.34
2023-03-31T03:13:53.567Z,98443.34
2023-03-31T03:16:41.482Z,98442.16
2023-03-31T03:19:23.519Z,98444.06
2023-03-31T03:21:55.889Z,98433.78
2023-03-31T03:24:29.878Z,98435.06
2023-03-31T03:27:01.981Z,98426.50
2023-03-31T03:29:33.793Z,98428.97
2023-03-31T03:32:06.920Z,98429.41
2023-03-31T03:34:38.705Z,98421.50
2023-03-31T03:37:10.445Z,98418.03
2023-03-31T03:39:42.249Z,98420.94
2023-03-31T03:42:17.000Z,98409.06
2023-03-31T03:44:48.691Z,98407.78
2023-03-31T03:47:20.501Z,98400.69
2023-03-31T03:49:52.428Z,98399.69
2023-03-31T03:52:24.208Z,98387.72
2023-03-31T03:54:55.953Z,98385.84
2023-03-31T03:57:28.258Z,98380.78
2023-03-31T04:00:00.060Z,98369.25
2023-03-31T04:02:31.914Z,98366.41
2023-03-31T04:05:04.169Z,98367.88
2023-03-31T04:07:35.910Z,98357.97
2023-03-31T04:10:08.375Z,98357.16
2023-03-31T04:12:40.408Z,98356.50
2023-03-31T04:15:12.158Z,98355.50
2023-03-31T04:17:51.184Z,98348.44
2023-03-31T04:20:27.826Z,98347.22
2023-03-31T04:23:00.025Z,98342.75
2023-03-31T04:25:32.099Z,98339.13
2023-03-31T04:28:07.017Z,98326.59
2023-03-31T04:30:39.842Z,98328.22
2023-03-31T04:33:15.461Z,98320.69
2023-03-31T04:35:52.742Z,98318.28
2023-03-31T04:38:27.165Z,98315.47
2023-03-31T04:40:58.908Z,98312.66
2023-03-31T04:43:30.888Z,98315.09
2023-03-31T04:46:02.782Z,98313.28
2023-03-31T04:48:34.939Z,98309.81
2023-03-31T04:51:07.361Z,98312.44
2023-03-31T04:53:39.057Z,98306.94
2023-03-31T04:56:11.262Z,98305.75
2023-03-31T04:58:46.236Z,98309.13
2023-03-31T05:01:21.737Z,98306.31
2023-03-31T05:03:53.482Z,98298.03
2023-03-31T05:06:26.104Z,98298.44
2023-03-31T05:09:00.045Z,98296.91
2023-03-31T05:11:31.851Z,98294.53
2023-03-31T05:14:04.051Z,98290.44
2023-03-31T05:16:36.122Z,98286.22
2023-03-31T05:19:08.316Z,98269.81
2023-03-31T05:21:40.036Z,98275.78
2023-03-31T05:24:11.838Z,98272.00
2023-03-31T05:26:48.474Z,98266.44
2023-03-31T05:29:20.702Z,98263.84
2023-03-31T05:31:53.993Z,98242.59
2023-03-31T05:34:25.917Z,98241.97
2023-03-31T05:36:57.795Z,98238.47
2023-03-31T05:39:33.090Z,98233.19
2023-03-31T05:42:05.976Z,98234.22
2023-03-31T05:44:37.818Z,98214.50
2023-03-31T05:47:09.619Z,98217.72
2023-03-31T05:49:41.475Z,98219.31
2023-03-31T05:52:13.205Z,98222.38
2023-03-31T05:54:45.295Z,98216.88
2023-03-31T05:57:17.252Z,98213.63
2023-03-31T05:59:50.991Z,98197.38
2023-03-31T06:02:22.812Z,98199.06
2023-03-31T06:04:54.606Z,98194.00
2023-03-31T06:07:26.326Z,98194.47
2023-03-31T06:09:58.072Z,98192.94
2023-03-31T06:12:29.803Z,98186.69
2023-03-31T06:15:01.683Z,98182.81
2023-03-31T06:17:33.460Z,98173.28
2023-03-31T06:20:16.303Z,98179.94
2023-03-31T06:22:56.206Z,98179.97
2023-03-31T06:25:32.388Z,98179.34
2023-03-31T06:28:09.665Z,98165.72
2023-03-31T06:30:41.650Z,98154.50
2023-03-31T06:33:13.951Z,98162.56
2023-03-31T06:35:45.771Z,98164.50
2023-03-31T06:38:17.460Z,98158.28
2023-03-31T06:40:49.194Z,98163.91
2023-03-31T06:43:21.058Z,98159.81
2023-03-31T06:45:54.288Z,98161.66
2023-03-31T06:48:26.924Z,98165.22
2023-03-31T06:51:07.308Z,98163.72
2023-03-31T06:53:39.228Z,98171.28
2023-03-31T06:56:11.205Z,98175.88
2023-03-31T06:58:42.977Z,98165.38
2023-03-31T07:01:14.793Z,98157.50
2023-03-31T07:03:46.598Z,98157.34
2023-03-31T07:06:18.382Z,98151.91
2023-03-31T07:08:52.952Z,98149.47
2023-03-31T07:11:24.940Z,98157.69
2023-03-31T07:13:56.709Z,98147.75
2023-03-31T07:16:28.522Z,98146.53
2023-03-31T07:19:04.297Z,98138.81
2023-03-31T07:21:37.068Z,98143.69
2023-03-31T07:24:08.814Z,98141.22
2023-03-31T07:26:40.898Z,98142.03
2023-03-31T07:29:12.685Z,98136.53
2023-03-31T07:31:47.671Z,98134.91
2023-03-31T07:34:19.623Z,98132.47
2023-03-31T07:36:51.655Z,98126.13
2023-03-31T07:39:23.551Z,98128.13
2023-03-31T07:41:55.580Z,98118.72
2023-03-31T07:44:27.345Z,98115.56
2023-03-31T07:47:01.390Z,98112.50
2023-03-31T07:49:35.459Z,98107.19
2023-03-31T07:52:07.331Z,98106.31
2023-03-31T07:54:39.243Z,98105.91
2023-03-31T07:57:11.064Z,98092.88
2023-03-31T07:59:44.375Z,98083.28
2023-03-31T08:02:17.593Z,98080.91
2023-03-31T08:04:49.413Z,98082.63
2023-03-31T08:07:21.150Z,98089.94
2023-03-31T08:09:52.946Z,98090.03
2023-03-31T08:12:25.011Z,98092.69
2023-03-31T08:14:56.706Z,98096.72
2023-03-31T08:17:28.524Z,98091.44
2023-03-31T08:20:05.136Z,98098.38
2023-03-31T08:22:39.946Z,98091.78
2023-03-31T08:25:11.754Z,98101.41
2023-03-31T08:27:43.449Z,98084.56
2023-03-31T08:30:19.866Z,98082.34
2023-03-31T08:32:51.785Z,98081.75
2023-03-31T08:35:23.593Z,98064.25
2023-03-31T08:37:55.835Z,98069.22
2023-03-31T08:40:29.555Z,98065.00
2023-03-31T08:43:31.364Z,98076.69
2023-03-31T08:46:07.739Z,98073.25
2023-03-31T08:48:48.978Z,98063.72
2023-03-31T08:51:40.380Z,98074.09
2023-03-31T08:54:38.689Z,98064.53
2023-03-31T08:57:25.385Z,98062.72
2023-03-31T09:00:07.098Z,98073.75
2023-03-31T09:03:07.126Z,98065.22
2023-03-31T09:05:59.614Z,98063.84
2023-03-31T09:08:33.709Z,98045.94
2023-03-31T09:11:24.712Z,98039.41
2023-03-31T09:14:13.339Z,98038.06
2023-03-31T09:17:14.005Z,98037.25
2023-03-31T09:19:57.739Z,98030.97
2023-03-31T09:22:38.322Z,98017.75
2023-03-31T09:25:18.744Z,98016.13
2023-03-31T09:27:54.625Z,98000.47
2023-03-31T09:30:35.830Z,98005.75
2023-03-31T09:33:33.882Z,97996.19
2023-03-31T09:36:15.959Z,97995.59
2023-03-31T09:38:48.329Z,98005.78
2023-03-31T09:41:20.625Z,97999.06
2023-03-31T09:43:53.697Z,97988.03
2023-03-31T09:46:36.748Z,97991.06
2023-03-31T09:49:14.034Z,97987.03
2023-03-31T09:51:49.079Z,97972.94
2023-03-31T09:54:49.843Z,97982.69
2023-03-31T09:57:31.219Z,97973.78
2023-03-31T10:00:14.153Z,97974.19
2023-03-31T10:02:50.050Z,97973.53
2023-03-31T10:05:32.516Z,97962.94
2023-03-31T10:08:29.040Z,97961.31
2023-03-31T10:11:04.041Z,97948.69
2023-03-31T10:14:02.336Z,97948.28
2023-03-31T10:16:44.562Z,97944.66
2023-03-31T10:19:22.143Z,97947.34
2023-03-31T10:22:06.533Z,97940.22
2023-03-31T10:24:47.319Z,97925.97
2023-03-31T10:27:32.445Z,97929.34
2023-03-31T10:30:09.407Z,97924.63
2023-03-31T10:32:50.317Z,97926.69
2023-03-31T10:35:35.437Z,97913.03
2023-03-31T10:38:12.291Z,97917.34
2023-03-31T10:40:56.445Z,97905.72
2023-03-31T10:43:36.418Z,97915.06
2023-03-31T10:46:09.216Z,97908.16
2023-03-31T10:48:42.497Z,97909.13
2023-03-31T10:51:25.962Z,97895.94
2023-03-31T10:54:03.468Z,97890.44
2023-03-31T10:56:58.325Z,97887.78
2023-03-31T10:59:46.842Z,97884.56
2023-03-31T11:02:27.655Z,97884.88
2023-03-31T11:05:25.474Z,97887.13
2023-03-31T11:08:07.761Z,97878.88
2023-03-31T11:11:15.995Z,97879.03
2023-03-31T11:14:01.268Z,97880.88
2023-03-31T11:16:51.922Z,97874.22
2023-03-31T11:19:48.293Z,97876.69
2023-03-31T11:22:52.601Z,97877.72
2023-03-31T11:25:43.625Z,97869.78
2023-03-31T11:28:36.794Z,97874.06
2023-03-31T11:31:08.682Z,97861.72
2023-03-31T11:33:56.821Z,97859.31
2023-03-31T11:36:36.808Z,97858.94
2023-03-31T11:39:28.779Z,97858.97
2023-03-31T11:42:13.557Z,97842.34
2023-03-31T11:44:53.124Z,97821.97
2023-03-31T11:47:32.731Z,97757.72
2023-03-31T11:50:11.596Z,97735.97
2023-03-31T11:53:00.779Z,97735.53
2023-03-31T11:55:34.969Z,97768.78
2023-03-31T11:58:20.778Z,97782.63
2023-03-31T12:01:00.177Z,97788.50
2023-03-31T12:03:39.299Z,97796.56
2023-03-31T12:06:19.893Z,97795.97
2023-03-31T12:09:13.370Z,97784.88
2023-03-31T12:12:06.213Z,97773.47
2023-03-31T12:14:55.638Z,97776.63
2023-03-31T12:17:27.888Z,97764.41
2023-03-31T12:20:07.345Z,97755.22
2023-03-31T12:22:44.911Z,97761.31
2023-03-31T12:25:26.171Z,97755.88
2023-03-31T12:27:59.936Z,97746.91
2023-03-31T12:30:46.237Z,97748.72
2023-03-31T12:33:43.047Z,97743.22
2023-03-31T12:36:30.016Z,97744.03
2023-03-31T12:39:33.691Z,97735.25
2023-03-31T12:42:08.108Z,97728.34
2023-03-31T12:45:02.693Z,97725.56
2023-03-31T12:48:13.234Z,97714.56
2023-03-31T12:51:20.684Z,97709.34
2023-03-31T12:54:01.536Z,97702.41
2023-03-31T12:57:01.705Z,97697.22
2023-03-31T12:59:41.090Z,97700.47
2023-03-31T13:02:16.254Z,97703.22
2023-03-31T13:04:49.696Z,97692.44
2023-03-31T13:07:29.161Z,97681.22
2023-03-31T13:10:19.884Z,97687.53
2023-03-31T13:13:14.794Z,97676.28
2023-03-31T13:16:01.240Z,97668.16
2023-03-31T13:18:35.585Z,97651.66
2023-03-31T13:21:08.397Z,97651.38
2023-03-31T13:23:46.708Z,97637.25
2023-03-31T13:26:33.664Z,97621.22
2023-03-31T13:29:14.850Z,97596.03
2023-03-31T13:32:04.837Z,97591.06
2023-03-31T13:35:04.103Z,97600.50
2023-03-31T13:38:14.398Z,97588.34
2023-03-31T13:41:03.935Z,97589.31
2023-03-31T13:43:59.618Z,97580.09
2023-03-31T13:46:52.159Z,97581.69
2023-03-31T13:49:55.904Z,97583.03
2023-03-31T13:52:53.867Z,97577.06
2023-03-31T13:55:53.384Z,97577.56
2023-03-31T13:58:35.071Z,97566.50
2023-03-31T14:01:37.323Z,97572.44
2023-03-31T14:04:50.462Z,97676.59
2023-03-31T14:07:42.611Z,97636.94
2023-03-31T14:10:45.200Z,97633.31
2023-03-31T14:13:20.031Z,97634.47
2023-03-31T14:15:58.678Z,97616.75
2023-03-31T14:18:35.787Z,97623.91
2023-03-31T14:21:34.946Z,97632.59
2023-03-31T14:24:24.530Z,97633.56
2023-03-31T14:27:18.762Z,97642.66
2023-03-31T14:30:13.105Z,97657.25
2023-03-31T14:33:15.799Z,97655.97
2023-03-31T14:36:16.029Z,97650.44
2023-03-31T14:38:47.957Z,97650.28
2023-03-31T14:41:21.594Z,97655.78
2023-03-31T14:43:53.335Z,97648.94
2023-03-31T14:46:25.063Z,97645.94
2023-03-31T14:48:57.712Z,97629.50
2023-03-31T14:51:31.045Z,97627.53
2023-03-31T14:54:02.963Z,97614.06
2023-03-31T14:56:40.556Z,97642.56
2023-03-31T14:59:22.089Z,97629.00
2023-03-31T15:01:56.400Z,97629.19
2023-03-31T15:04:42.472Z,97622.44
2023-03-31T15:07:16.422Z,97612.13
2023-03-31T15:09:51.528Z,97612.31
2023-03-31T15:12:28.873Z,97604.81
2023-03-31T15:15:06.544Z,97602.50
2023-03-31T15:17:41.676Z,97592.78
2023-03-31T15:20:27.972Z,97574.19
2023-03-31T15:23:00.033Z,97560.78
2023-03-31T15:25:39.564Z,97557.78
2023-03-31T15:28:16.786Z,97569.81
2023-03-31T15:31:03.479Z,97568.91
2023-03-31T15:33:42.158Z,97568.72
2023-03-31T15:36:17.242Z,97554.84
2023-03-31T15:38:57.275Z,97553.47
2023-03-31T15:41:31.809Z,97548.78
2023-03-31T15:44:36.565Z,97547.09
2023-03-31T15:47:24.495Z,97559.00
2023-03-31T15:50:17.007Z,97551.81
2023-03-31T15:52:55.735Z,97559.31
2023-03-31T15:55:31.998Z,97562.09
2023-03-31T15:58:04.103Z,97565.53
2023-03-31T16:00:47.271Z,97562.16
2023-03-31T16:03:38.756Z,97572.13
2023-03-31T16:06:16.431Z,97563.22
2023-03-31T16:09:15.138Z,97568.50
2023-03-31T16:12:10.693Z,97564.25
2023-03-31T16:14:53.834Z,97566.50
2023-03-31T16:17:34.960Z,97575.47
2023-03-31T16:20:11.322Z,97577.84
2023-03-31T16:22:47.776Z,97575.22
2023-03-31T16:25:23.082Z,97577.59
2023-03-31T16:27:57.711Z,97575.13
2023-03-31T16:30:38.541Z,97572.47
2023-03-31T16:33:12.305Z,97578.88
2023-03-31T16:35:50.416Z,97596.09
2023-03-31T16:38:24.618Z,97594.88
2023-03-31T16:40:58.781Z,97596.91
2023-03-31T16:43:31.562Z,97582.69
2023-03-31T16:46:04.491Z,97580.25
2023-03-31T16:48:36.278Z,97566.63
2023-03-31T16:51:07.968Z,97562.72
2023-03-31T16:53:40.410Z,97560.72
2023-03-31T16:56:15.004Z,97561.09
2023-03-31T16:58:46.921Z,97565.16
2023-03-31T17:01:18.829Z,97563.13
2023-03-31T17:03:52.345Z,97571.25
2023-03-31T17:06:24.333Z,97572.72
2023-03-31T17:08:56.292Z,97578.81
2023-03-31T17:11:28.532Z,97583.28
2023-03-31T17:14:00.413Z,97579.28
2023-03-31T17:16:45.012Z,97585.59
2023-03-31T17:19:22.692Z,97573.78
2023-03-31T17:21:55.186Z,97581.13
2023-03-31T17:24:27.467Z,97597.97
2023-03-31T17:26:59.347Z,97590.13
2023-03-31T17:29:32.097Z,97600.69
2023-03-31T17:32:04.320Z,97602.38
2023-03-31T17:34:36.255Z,97596.66
2023-03-31T17:37:08.275Z,97603.16
2023-03-31T17:39:40.081Z,97601.75
2023-03-31T17:42:13.380Z,97597.13
2023-03-31T17:44:46.451Z,97594.25
2023-03-31T17:47:19.191Z,97599.31
2023-03-31T17:49:52.404Z,97586.56
2023-03-31T17:52:25.045Z,97591.84
2023-03-31T17:54:57.787Z,97594.25
2023-03-31T17:57:31.140Z,97591.69
2023-03-31T18:00:05.959Z,97598.78
2023-03-31T18:02:42.224Z,97600.19
2023-03-31T18:05:15.856Z,97608.91
2023-03-31T18:07:49.652Z,97607.13
2023-03-31T18:10:22.747Z,97608.38
2023-03-31T18:12:55.096Z,97615.09
2023-03-31T18:15:26.851Z,97618.38
2023-03-31T18:17:58.631Z,97624.47
2023-03-31T18:20:30.681Z,97624.88
2023-03-31T18:23:02.469Z,97629.94
2023-03-31T18:25:34.545Z,97633.03
2023-03-31T18:28:06.756Z,97628.31
2023-03-31T18:30:38.987Z,97631.63
2023-03-31T18:33:11.736Z,97626.56
2023-03-31T18:35:45.566Z,97626.78
2023-03-31T18:38:18.524Z,97628.00
2023-03-31T18:40:52.531Z,97630.25
2023-03-31T18:43:24.872Z,97633.28
2023-03-31T18:45:58.601Z,97629.63
2023-03-31T18:48:30.654Z,97625.38
2023-03-31T18:51:02.864Z,97622.56
2023-03-31T18:53:34.556Z,97627.22
2023-03-31T18:56:06.449Z,97631.91
2023-03-31T18:58:39.629Z,97626.47
2023-03-31T19:01:11.489Z,97633.56
2023-03-31T19:03:44.858Z,97625.84
2023-03-31T19:06:17.791Z,97629.91
2023-03-31T19:08:49.682Z,97626.88
2023-03-31T19:11:23.783Z,97633.34
2023-03-31T19:13:56.526Z,97625.84
2023-03-31T19:16:28.256Z,97628.28
2023-03-31T19:19:00.007Z,97634.38
2023-03-31T19:21:33.276Z,97636.22
2023-03-31T19:24:05.990Z,97633.78
2023-03-31T19:26:37.742Z,97636.81
2023-03-31T19:29:09.692Z,97626.25
2023-03-31T19:31:41.553Z,97626.88
2023-03-31T19:34:14.097Z,97633.78
2023-03-31T19:36:45.841Z,97626.06
2023-03-31T19:39:18.138Z,97631.78
2023-03-31T19:41:49.879Z,97633.59
2023-03-31T19:44:21.759Z,97627.53
2023-03-31T19:46:53.562Z,97631.19
2023-03-31T19:49:25.495Z,97632.22
2023-03-31T19:51:57.200Z,97633.81
2023-03-31T19:54:28.909Z,97635.44
2023-03-31T19:57:00.995Z,97632.41
2023-03-31T19:59:32.814Z,97627.94
2023-03-31T20:02:06.875Z,97637.25
2023-03-31T20:04:39.056Z,97633.44
2023-03-31T20:07:13.866Z,97632.19
2023-03-31T20:09:46.096Z,97644.38
2023-03-31T20:12:18.121Z,97633.81
2023-03-31T20:14:49.921Z,97642.75
2023-03-31T20:17:21.670Z,97640.72
2023-03-31T20:19:53.422Z,97635.44
2023-03-31T20:22:26.407Z,97638.88
2023-03-31T20:24:58.287Z,97633.00
2023-03-31T20:27:30.060Z,97637.47
2023-03-31T20:30:02.186Z,97633.19
2023-03-31T20:32:33.952Z,97633.78
2023-03-31T20:35:07.137Z,97620.41
2023-03-31T20:37:38.944Z,97620.97
2023-03-31T20:40:12.098Z,97634.59
2023-03-31T20:42:43.822Z,97630.94
2023-03-31T20:45:15.627Z,97637.59
2023-03-31T20:47:47.396Z,97640.84
2023-03-31T20:50:22.959Z,97641.66
2023-03-31T20:52:58.651Z,97640.22
2023-03-31T20:55:30.559Z,97638.19
2023-03-31T20:58:03.638Z,97631.09
2023-03-31T21:00:35.868Z,97631.91
2023-03-31T21:03:07.750Z,97631.66
2023-03-31T21:05:47.905Z,97629.47
2023-03-31T21:08:19.684Z,97626.00
2023-03-31T21:10:51.668Z,97620.13
2023-03-31T21:13:23.605Z,97618.53
2023-03-31T21:15:55.968Z,97614.91
2023-03-31T21:18:29.567Z,97615.31
2023-03-31T21:21:03.675Z,97616.34
2023-03-31T21:23:37.023Z,97619.59
2023-03-31T21:26:11.316Z,97622.44
2023-03-31T21:28:44.144Z,97617.78
2023-03-31T21:31:18.844Z,97621.44
2023-03-31T21:33:51.550Z,97613.94
2023-03-31T21:36:26.342Z,97623.69
2023-03-31T21:38:58.127Z,97623.25
2023-03-31T21:41:31.454Z,97621.06
2023-03-31T21:44:04.204Z,97613.94
2023-03-31T21:46:36.164Z,97614.75
2023-03-31T21:49:08.034Z,97614.13
2023-03-31T21:51:40.165Z,97619.41
2023-03-31T21:54:11.977Z,97616.78
2023-03-31T21:56:45.098Z,97619.44
2023-03-31T21:59:16.806Z,97616.19
2023-03-31T22:01:51.153Z,97622.28
2023-03-31T22:04:23.097Z,97620.69
2023-03-31T22:06:55.057Z,97625.94
2023-03-31T22:09:27.636Z,97620.06
2023-03-31T22:11:59.352Z,97622.69
2023-03-31T22:14:31.550Z,97620.25
2023-03-31T22:17:03.732Z,97620.25
2023-03-31T22:19:36.075Z,97620.25
2023-03-31T22:22:07.828Z,97615.16
2023-03-31T22:24:39.683Z,97614.19
2023-03-31T22:27:12.288Z,97613.16
2023-03-31T22:29:44.148Z,97613.78
2023-03-31T22:32:19.993Z,97613.53
2023-03-31T22:34:51.744Z,97621.06
2023-03-31T22:37:23.479Z,97619.03
2023-03-31T22:39:55.232Z,97619.03
2023-03-31T22:42:28.050Z,97614.78
2023-03-31T22:45:00.257Z,97618.59
2023-03-31T22:47:32.017Z,97611.31
2023-03-31T22:50:04.114Z,97616.56
2023-03-31T22:52:36.041Z,97622.44
2023-03-31T22:55:07.989Z,97620.03
2023-03-31T22:57:39.918Z,97616.78
2023-03-31T23:00:12.807Z,97624.50
2023-03-31T23:02:44.647Z,97619.59
2023-03-31T23:05:16.417Z,97626.91
2023-03-31T23:07:48.111Z,97619.41
2023-03-31T23:10:19.795Z,97617.97
2023-03-31T23:12:51.524Z,97620.00
2023-03-31T23:15:23.538Z,97623.06
2023-03-31T23:17:55.460Z,97627.34
2023-03-31T23:20:27.470Z,97619.44
2023-03-31T23:22:59.216Z,97620.81
2023-03-31T23:25:31.401Z,97621.06
2023-03-31T23:28:03.381Z,97613.72
2023-03-31T23:30:35.117Z,97607.66
2023-03-31T23:33:06.869Z,97614.16
2023-03-31T23:35:38.603Z,97614.97
2023-03-31T23:38:11.424Z,97619.59
2023-03-31T23:40:44.722Z,97613.72
2023-03-31T23:43:16.628Z,97606.03
2023-03-31T23:45:48.423Z,97605.22
2023-03-31T23:48:20.280Z,97602.16
2023-03-31T23:50:52.065Z,97601.13
2023-03-31T23:53:24.048Z,97598.88
2023-03-31T23:55:57.894Z,97600.31
2023-03-31T23:58:33.762Z,97605.97
